createdAt,value
2022-08-16T00:01:33.955Z,4.40
2022-08-16T00:04:05.506Z,4.50
2022-08-16T00:06:34.490Z,4.80
2022-08-16T00:09:06.024Z,4.50
2022-08-16T00:11:35.846Z,5.30
2022-08-16T00:14:09.018Z,4.70
2022-08-16T00:17:01.607Z,4.80
2022-08-16T00:19:41.095Z,4.30
2022-08-16T00:22:13.659Z,4.30
2022-08-16T00:24:46.574Z,4.60
2022-08-16T00:27:17.426Z,4.80
2022-08-16T00:29:46.642Z,5.50
2022-08-16T00:32:18.196Z,5.30
2022-08-16T00:34:52.924Z,4.70
2022-08-16T00:37:57.897Z,5.00
2022-08-16T00:40:34.769Z,4.80
2022-08-16T00:43:19.015Z,5.50
2022-08-16T00:46:33.959Z,5.10
2022-08-16T00:49:02.529Z,5.30
2022-08-16T00:51:32.049Z,5.20
2022-08-16T00:54:01.560Z,4.60
2022-08-16T00:56:56.950Z,4.50
2022-08-16T00:59:32.895Z,5.00
2022-08-16T01:02:30.112Z,4.80
2022-08-16T01:05:09.334Z,5.00
2022-08-16T01:07:51.751Z,4.70
2022-08-16T01:10:31.967Z,5.10
2022-08-16T01:13:33.949Z,4.60
2022-08-16T01:16:14.412Z,4.80
2022-08-16T01:18:57.844Z,5.30
2022-08-16T01:21:40.782Z,4.60
2022-08-16T01:24:53.351Z,5.00
2022-08-16T01:27:21.777Z,4.90
2022-08-16T01:30:19.336Z,5.50
2022-08-16T01:33:02.674Z,5.20
2022-08-16T01:35:56.179Z,5.70
2022-08-16T01:38:38.230Z,5.60
2022-08-16T01:41:19.872Z,5.60
2022-08-16T01:43:54.599Z,5.20
2022-08-16T01:46:39.431Z,5.50
2022-08-16T01:49:42.843Z,5.50
2022-08-16T01:52:28.256Z,5.20
2022-08-16T01:55:26.024Z,4.60
2022-08-16T01:58:06.628Z,5.00
2022-08-16T02:00:41.256Z,5.20
2022-08-16T02:03:13.014Z,5.30
2022-08-16T02:05:51.780Z,5.60
2022-08-16T02:08:33.914Z,6.10
2022-08-16T02:11:08.887Z,5.30
2022-08-16T02:13:43.649Z,6.10
2022-08-16T02:16:18.893Z,5.50
2022-08-16T02:18:48.958Z,5.70
2022-08-16T02:21:31.600Z,6.30
2022-08-16T02:24:00.770Z,7.30
2022-08-16T02:26:34.456Z,6.30
2022-08-16T02:29:04.083Z,9.30
2022-08-16T02:32:04.109Z,10.70
2022-08-16T02:34:32.765Z,11.10
2022-08-16T02:37:04.424Z,10.10
2022-08-16T02:39:34.275Z,9.80
2022-08-16T02:42:04.777Z,9.80
2022-08-16T02:44:33.786Z,8.70
2022-08-16T02:47:04.931Z,7.60
2022-08-16T02:50:25.831Z,7.20
2022-08-16T02:52:24.682Z,6.60
2022-08-16T02:55:01.202Z,5.90
2022-08-16T02:57:31.421Z,6.50
2022-08-16T03:00:32.056Z,6.60
2022-08-16T03:02:55.993Z,7.20
2022-08-16T03:05:26.441Z,6.70
2022-08-16T03:08:00.681Z,7.20
2022-08-16T03:10:34.045Z,7.30
2022-08-16T03:13:12.602Z,7.50
2022-08-16T03:15:42.951Z,8.10
2022-08-16T03:18:18.737Z,7.50
2022-08-16T03:21:02.513Z,6.70
2022-08-16T03:23:35.951Z,7.90
2022-08-16T03:26:05.827Z,7.00
2022-08-16T03:28:35.127Z,6.70
2022-08-16T03:31:04.961Z,7.50
2022-08-16T03:33:35.779Z,7.70
2022-08-16T03:36:30.999Z,7.80
2022-08-16T03:38:59.060Z,8.30
2022-08-16T03:41:49.566Z,8.00
2022-08-16T03:44:44.122Z,8.20
2022-08-16T03:47:10.257Z,7.90
2022-08-16T03:49:41.318Z,8.40
2022-08-16T03:52:13.795Z,7.60
2022-08-16T03:54:57.774Z,7.40
2022-08-16T03:57:32.177Z,7.10
2022-08-16T04:00:40.265Z,7.40
2022-08-16T04:03:10.207Z,7.30
2022-08-16T04:05:48.808Z,7.90
2022-08-16T04:08:23.164Z,7.60
2022-08-16T04:10:58.049Z,7.70
2022-08-16T04:14:01.060Z,8.20
2022-08-16T04:16:26.622Z,7.50
2022-08-16T04:19:02.511Z,8.30
2022-08-16T04:21:45.945Z,7.70
2022-08-16T04:24:17.104Z,8.50
2022-08-16T04:26:46.728Z,9.10
2022-08-16T04:29:24.435Z,8.40
2022-08-16T04:31:57.910Z,8.10
2022-08-16T04:34:37.589Z,6.80
2022-08-16T04:37:07.619Z,8.20
2022-08-16T04:39:47.268Z,8.40
2022-08-16T04:42:29.688Z,8.00
2022-08-16T04:45:01.986Z,8.90
2022-08-16T04:47:35.476Z,8.80
2022-08-16T04:50:18.367Z,8.50
2022-08-16T04:53:19.458Z,8.10
2022-08-16T04:55:53.099Z,8.80
2022-08-16T04:58:45.044Z,9.20
2022-08-16T05:01:12.244Z,9.70
2022-08-16T05:03:42.050Z,10.30
2022-08-16T05:06:40.154Z,9.60
2022-08-16T05:09:23.216Z,9.50
2022-08-16T05:11:57.184Z,9.60
2022-08-16T05:14:45.446Z,9.70
2022-08-16T05:17:24.749Z,9.80
2022-08-16T05:19:57.442Z,10.60
2022-08-16T05:22:30.474Z,10.40
2022-08-16T05:25:08.890Z,10.00
2022-08-16T05:27:42.804Z,10.20
2022-08-16T05:30:36.797Z,10.50
2022-08-16T05:33:08.812Z,10.60
2022-08-16T05:35:38.398Z,10.20
2022-08-16T05:38:32.204Z,11.00
2022-08-16T05:41:05.143Z,10.60
2022-08-16T05:43:46.798Z,9.70
2022-08-16T05:46:29.597Z,10.80
2022-08-16T05:49:08.630Z,10.30
2022-08-16T05:51:41.921Z,11.50
2022-08-16T05:54:24.746Z,10.90
2022-08-16T05:56:57.704Z,11.20
2022-08-16T05:59:29.458Z,11.10
2022-08-16T06:01:59.190Z,10.30
2022-08-16T06:04:36.173Z,9.90
2022-08-16T06:07:24.399Z,10.60
2022-08-16T06:10:02.707Z,10.20
2022-08-16T06:12:32.909Z,9.10
2022-08-16T06:15:19.662Z,10.10
2022-08-16T06:17:51.741Z,9.60
2022-08-16T06:20:35.091Z,10.00
2022-08-16T06:23:17.689Z,10.50
2022-08-16T06:26:07.617Z,10.30
2022-08-16T06:28:39.884Z,11.00
2022-08-16T06:31:16.195Z,10.10
2022-08-16T06:33:48.441Z,10.30
2022-08-16T06:36:21.810Z,9.90
2022-08-16T06:38:57.001Z,10.20
2022-08-16T06:41:52.316Z,10.80
2022-08-16T06:44:39.515Z,10.40
2022-08-16T06:47:16.871Z,10.40
2022-08-16T06:49:54.019Z,10.00
2022-08-16T06:52:57.685Z,10.20
2022-08-16T06:55:17.221Z,10.00
2022-08-16T06:57:52.470Z,9.70
2022-08-16T07:00:25.098Z,8.80
2022-08-16T07:03:27.651Z,9.20
2022-08-16T07:05:58.092Z,9.30
2022-08-16T07:08:33.442Z,10.20
2022-08-16T07:11:02.330Z,8.30
2022-08-16T07:16:27.872Z,9.00
2022-08-16T07:19:01.866Z,8.50
2022-08-16T07:21:45.864Z,8.90
2022-08-16T07:24:29.904Z,8.30
2022-08-16T07:27:04.536Z,10.00
2022-08-16T07:29:40.172Z,9.70
2022-08-16T07:32:11.081Z,8.70
2022-08-16T07:34:48.597Z,9.00
2022-08-16T07:37:20.361Z,8.60
2022-08-16T07:40:14.378Z,8.60
2022-08-16T07:42:45.647Z,8.90
2022-08-16T07:45:16.962Z,8.60
2022-08-16T07:47:51.084Z,8.60
2022-08-16T07:50:55.777Z,8.70
2022-08-16T07:53:10.721Z,8.60
2022-08-16T07:55:47.677Z,8.40
2022-08-16T07:58:33.721Z,8.20
2022-08-16T08:01:11.101Z,9.10
2022-08-16T08:03:48.988Z,8.80
2022-08-16T08:06:25.564Z,7.80
2022-08-16T08:08:59.296Z,8.80
2022-08-16T08:11:30.823Z,8.30
2022-08-16T08:14:03.622Z,8.40
2022-08-16T08:16:39.968Z,8.10
2022-08-16T08:19:25.042Z,8.50
2022-08-16T08:22:01.229Z,7.60
2022-08-16T08:24:52.006Z,8.10
2022-08-16T08:27:23.646Z,8.40
2022-08-16T08:30:50.187Z,6.90
2022-08-16T08:32:51.193Z,7.40
2022-08-16T08:35:29.106Z,6.80
2022-08-16T08:38:00.221Z,6.60
2022-08-16T08:40:31.485Z,7.10
2022-08-16T08:43:11.984Z,7.20
2022-08-16T08:45:55.850Z,8.00
2022-08-16T08:48:33.123Z,7.30
2022-08-16T08:51:10.014Z,8.30
2022-08-16T08:53:59.695Z,8.50
2022-08-16T08:56:34.823Z,8.00
2022-08-16T08:59:23.834Z,8.20
2022-08-16T09:01:58.094Z,8.20
2022-08-16T09:04:53.831Z,9.20
2022-08-16T09:07:27.126Z,9.00
2022-08-16T09:10:06.241Z,8.30
2022-08-16T09:12:40.193Z,9.00
2022-08-16T09:15:17.864Z,9.40
2022-08-16T09:17:57.280Z,8.10
2022-08-16T09:20:31.912Z,8.30
2022-08-16T09:23:02.766Z,8.70
2022-08-16T09:25:39.134Z,8.90
2022-08-16T09:29:13.361Z,8.50
2022-08-16T09:31:13.823Z,8.30
2022-08-16T09:33:44.369Z,9.00
2022-08-16T09:36:32.186Z,8.50
2022-08-16T09:39:04.317Z,8.10
2022-08-16T09:41:33.854Z,7.50
2022-08-16T09:45:09.449Z,7.40
2022-08-16T09:46:57.827Z,7.20
2022-08-16T09:49:36.858Z,7.30
2022-08-16T09:52:06.661Z,7.80
2022-08-16T09:54:44.496Z,7.10
2022-08-16T09:57:14.174Z,7.00
2022-08-16T09:59:43.994Z,7.20
2022-08-16T10:02:27.214Z,7.40
2022-08-16T10:04:58.940Z,7.70
2022-08-16T10:07:44.306Z,6.90
2022-08-16T10:10:18.896Z,7.00
2022-08-16T10:13:12.350Z,7.20
2022-08-16T10:15:53.356Z,7.30
2022-08-16T10:18:56.126Z,6.90
2022-08-16T10:21:17.213Z,7.00
2022-08-16T10:23:49.074Z,7.10
2022-08-16T10:27:20.325Z,7.30
2022-08-16T10:29:19.931Z,7.00
2022-08-16T10:31:53.545Z,7.30
2022-08-16T10:34:30.678Z,7.40
2022-08-16T10:37:02.640Z,6.70
2022-08-16T10:39:41.126Z,7.60
2022-08-16T10:42:13.405Z,7.30
2022-08-16T10:44:46.594Z,7.50
2022-08-16T10:47:23.305Z,7.60
2022-08-16T10:49:52.539Z,7.50
2022-08-16T10:52:21.436Z,7.80
2022-08-16T10:55:40.801Z,6.40
2022-08-16T10:57:42.568Z,6.20
2022-08-16T11:00:21.036Z,6.50
2022-08-16T11:03:41.807Z,6.40
2022-08-16T11:05:59.946Z,6.80
2022-08-16T11:08:35.798Z,6.10
2022-08-16T11:11:18.381Z,6.50
2022-08-16T11:14:11.075Z,7.10
2022-08-16T11:19:28.334Z,6.70
2022-08-16T11:22:22.691Z,6.40
2022-08-16T11:25:11.846Z,6.80
2022-08-16T11:27:37.964Z,6.20
2022-08-16T11:30:12.193Z,6.20
2022-08-16T11:32:44.651Z,7.20
2022-08-16T11:35:43.397Z,6.20
2022-08-16T11:38:46.701Z,6.70
2022-08-16T11:41:03.965Z,5.60
2022-08-16T11:43:38.298Z,6.80
2022-08-16T11:46:43.281Z,6.50
2022-08-16T11:49:08.687Z,6.50
2022-08-16T11:51:44.326Z,5.90
2022-08-16T11:54:20.186Z,5.90
2022-08-16T11:56:57.398Z,6.00
2022-08-16T11:59:29.576Z,6.40
2022-08-16T12:02:04.149Z,6.90
2022-08-16T12:04:51.717Z,6.40
2022-08-16T12:07:23.579Z,6.10
2022-08-16T12:09:54.234Z,6.60
2022-08-16T12:12:23.970Z,6.50
2022-08-16T12:14:59.874Z,5.90
2022-08-16T12:17:32.455Z,5.80
2022-08-16T12:20:04.905Z,6.10
2022-08-16T12:22:38.345Z,6.20
2022-08-16T12:25:12.130Z,6.10
2022-08-16T12:27:42.752Z,6.00
2022-08-16T12:30:21.822Z,5.60
2022-08-16T12:32:59.510Z,5.50
2022-08-16T12:35:33.724Z,4.80
2022-08-16T12:38:35.787Z,5.70
2022-08-16T12:40:57.164Z,5.40
2022-08-16T12:43:26.422Z,5.70
2022-08-16T12:46:02.096Z,4.90
2022-08-16T12:48:52.714Z,4.90
2022-08-16T12:51:32.852Z,5.40
2022-08-16T12:54:16.064Z,5.10
2022-08-16T12:56:45.262Z,5.70
2022-08-16T12:59:20.099Z,5.10
2022-08-16T13:01:57.972Z,5.00
2022-08-16T13:04:31.335Z,5.00
2022-08-16T13:07:04.994Z,5.30
2022-08-16T13:09:48.224Z,5.60
2022-08-16T13:12:25.055Z,5.60
2022-08-16T13:14:56.207Z,5.10
2022-08-16T13:17:29.724Z,5.30
2022-08-16T13:20:09.071Z,5.30
2022-08-16T13:22:44.010Z,5.30
2022-08-16T13:25:21.046Z,5.00
2022-08-16T13:28:02.532Z,5.30
2022-08-16T13:30:42.631Z,4.80
2022-08-16T13:33:18.976Z,5.20
2022-08-16T13:36:01.368Z,5.10
2022-08-16T13:38:37.621Z,5.20
2022-08-16T13:41:12.761Z,5.00
2022-08-16T13:43:42.783Z,4.90
2022-08-16T13:46:11.625Z,5.30
2022-08-16T13:48:43.940Z,5.70
2022-08-16T13:51:18.766Z,4.50
2022-08-16T13:54:02.878Z,4.70
2022-08-16T13:56:37.513Z,5.00
2022-08-16T13:59:20.465Z,4.20
2022-08-16T14:01:56.739Z,4.90
2022-08-16T14:04:38.017Z,4.80
2022-08-16T14:07:13.583Z,4.70
2022-08-16T14:09:55.206Z,5.40
2022-08-16T14:12:31.048Z,4.40
2022-08-16T14:15:01.949Z,4.90
2022-08-16T14:18:01.770Z,4.70
2022-08-16T14:20:21.028Z,4.70
2022-08-16T14:22:54.482Z,4.80
2022-08-16T14:25:27.114Z,5.90
2022-08-16T14:27:57.491Z,6.90
2022-08-16T14:30:26.508Z,5.10
2022-08-16T14:32:55.478Z,5.00
2022-08-16T14:35:36.622Z,4.90
2022-08-16T14:38:23.868Z,4.80
2022-08-16T14:40:55.009Z,4.60
2022-08-16T14:43:29.903Z,4.50
2022-08-16T14:46:00.284Z,3.70
2022-08-16T14:48:31.518Z,4.00
2022-08-16T14:51:00.599Z,4.10
2022-08-16T14:53:32.810Z,5.60
2022-08-16T14:56:02.503Z,3.40
2022-08-16T14:58:34.650Z,3.70
2022-08-16T15:01:10.029Z,3.80
2022-08-16T15:03:42.367Z,4.10
2022-08-16T15:06:14.644Z,4.10
2022-08-16T15:08:45.970Z,3.80
2022-08-16T15:11:15.006Z,4.20
2022-08-16T15:13:43.893Z,5.00
2022-08-16T15:16:12.684Z,4.10
2022-08-16T15:18:41.888Z,3.70
2022-08-16T15:21:15.590Z,4.20
2022-08-16T15:23:44.418Z,3.80
2022-08-16T15:26:29.742Z,3.80
2022-08-16T15:29:02.134Z,4.20
2022-08-16T15:31:32.865Z,4.00
2022-08-16T15:34:04.420Z,3.90
2022-08-16T15:36:33.412Z,4.00
2022-08-16T15:39:25.554Z,3.90
2022-08-16T15:41:58.444Z,4.30
2022-08-16T15:44:45.125Z,3.90
2022-08-16T15:47:26.031Z,3.80
2022-08-16T15:49:56.592Z,4.40
2022-08-16T15:52:30.859Z,5.40
2022-08-16T15:55:12.744Z,3.80
2022-08-16T15:57:51.358Z,3.60
2022-08-16T16:00:20.997Z,3.90
2022-08-16T16:02:50.256Z,3.90
2022-08-16T16:05:20.614Z,4.20
2022-08-16T16:07:57.005Z,6.30
2022-08-16T16:10:39.606Z,4.20
2022-08-16T16:13:09.415Z,4.10
2022-08-16T16:15:53.155Z,4.10
2022-08-16T16:18:26.403Z,3.50
2022-08-16T16:21:04.791Z,3.50
2022-08-16T16:23:53.985Z,4.20
2022-08-16T16:26:27.212Z,3.80
2022-08-16T16:29:08.065Z,3.70
2022-08-16T16:31:59.042Z,3.60
2022-08-16T16:34:32.312Z,3.60
2022-08-16T16:37:05.387Z,3.80
2022-08-16T16:39:39.227Z,3.60
2022-08-16T16:42:10.970Z,3.40
2022-08-16T16:45:01.466Z,3.60
2022-08-16T16:47:41.475Z,3.40
2022-08-16T16:50:13.566Z,3.40
2022-08-16T16:52:46.451Z,3.50
2022-08-16T16:55:17.172Z,3.00
2022-08-16T16:58:05.162Z,3.40
2022-08-16T17:00:51.555Z,3.40
2022-08-16T17:03:22.061Z,3.40
2022-08-16T17:06:02.682Z,3.10
2022-08-16T17:08:41.433Z,3.60
2022-08-16T17:11:12.675Z,3.60
2022-08-16T17:13:44.228Z,5.10
2022-08-16T17:16:18.382Z,5.40
2022-08-16T17:19:16.710Z,4.90
2022-08-16T17:21:43.180Z,4.60
2022-08-16T17:24:17.985Z,4.60
2022-08-16T17:26:49.121Z,4.60
2022-08-16T17:29:18.249Z,4.30
2022-08-16T17:31:50.220Z,4.40
2022-08-16T17:34:30.330Z,4.50
2022-08-16T17:37:04.994Z,4.10
2022-08-16T17:39:59.679Z,6.60
2022-08-16T17:42:29.507Z,5.30
2022-08-16T17:44:59.012Z,4.50
2022-08-16T17:47:28.149Z,5.30
2022-08-16T17:49:57.306Z,4.90
2022-08-16T17:52:26.505Z,4.70
2022-08-16T17:54:55.295Z,6.00
2022-08-16T17:57:24.199Z,5.00
2022-08-16T17:59:53.078Z,4.90
2022-08-16T18:02:43.436Z,4.40
2022-08-16T18:05:16.412Z,15.30
2022-08-16T18:07:45.661Z,11.10
2022-08-16T18:10:32.421Z,6.60
2022-08-16T18:13:02.661Z,5.40
2022-08-16T18:15:33.328Z,5.50
2022-08-16T18:18:02.425Z,6.80
2022-08-16T18:20:49.961Z,6.00
2022-08-16T18:23:23.964Z,5.80
2022-08-16T18:25:59.050Z,5.90
2022-08-16T18:28:30.360Z,5.20
2022-08-16T18:31:01.174Z,5.10
2022-08-16T18:33:34.037Z,5.90
2022-08-16T18:36:20.961Z,5.50
2022-08-16T18:38:52.547Z,6.20
2022-08-16T18:41:24.673Z,6.30
2022-08-16T18:44:26.909Z,6.30
2022-08-16T18:46:48.921Z,5.50
2022-08-16T18:49:20.377Z,5.70
2022-08-16T18:51:51.099Z,5.80
2022-08-16T18:54:20.301Z,5.60
2022-08-16T18:56:55.662Z,7.40
2022-08-16T18:59:30.728Z,6.40
2022-08-16T19:02:04.822Z,7.00
2022-08-16T19:04:55.121Z,6.30
2022-08-16T19:07:31.013Z,6.30
2022-08-16T19:10:02.580Z,6.10
2022-08-16T19:12:37.758Z,6.90
2022-08-16T19:15:21.062Z,6.80
2022-08-16T19:17:49.962Z,6.40
2022-08-16T19:20:24.441Z,6.90
2022-08-16T19:23:05.030Z,6.10
2022-08-16T19:25:46.846Z,7.40
2022-08-16T19:28:49.392Z,6.90
2022-08-16T19:31:31.159Z,6.40
2022-08-16T19:34:01.484Z,6.10
2022-08-16T19:36:37.367Z,6.70
2022-08-16T19:39:14.204Z,6.50
2022-08-16T19:41:53.324Z,6.50
2022-08-16T19:44:24.139Z,6.40
2022-08-16T19:46:52.928Z,7.10
2022-08-16T19:49:21.927Z,6.90
2022-08-16T19:51:51.943Z,6.30
2022-08-16T19:54:20.730Z,8.50
2022-08-16T19:56:49.632Z,10.10
2022-08-16T19:59:20.623Z,11.40
2022-08-16T20:01:52.779Z,14.30
2022-08-16T20:04:23.687Z,13.30
2022-08-16T20:06:53.928Z,13.20
2022-08-16T20:09:24.218Z,12.30
2022-08-16T20:11:54.843Z,12.80
2022-08-16T20:14:26.299Z,12.30
2022-08-16T20:17:00.039Z,12.20
2022-08-16T20:19:35.197Z,12.70
2022-08-16T20:22:51.987Z,13.10
2022-08-16T20:25:32.999Z,12.60
2022-08-16T20:28:01.931Z,12.40
2022-08-16T20:30:30.821Z,11.00
2022-08-16T20:32:59.609Z,11.30
2022-08-16T20:35:29.912Z,13.90
2022-08-16T20:38:00.361Z,14.00
2022-08-16T20:40:35.109Z,11.60
2022-08-16T20:43:14.356Z,12.70
2022-08-16T20:45:47.269Z,11.00
2022-08-16T20:48:16.106Z,12.10
2022-08-16T20:50:45.608Z,11.60
2022-08-16T20:53:14.397Z,10.60
2022-08-16T20:55:44.970Z,10.00
2022-08-16T20:58:14.240Z,10.70
2022-08-16T21:00:43.402Z,9.50
2022-08-16T21:03:13.651Z,10.60
2022-08-16T21:05:43.156Z,9.70
2022-08-16T21:08:50.998Z,10.10
2022-08-16T21:11:04.954Z,9.20
2022-08-16T21:13:36.209Z,10.50
2022-08-16T21:16:08.214Z,9.90
2022-08-16T21:18:37.006Z,10.40
2022-08-16T21:21:06.028Z,11.40
2022-08-16T21:23:35.400Z,11.60
2022-08-16T21:26:10.839Z,10.80
2022-08-16T21:28:43.191Z,10.90
2022-08-16T21:31:16.111Z,10.50
2022-08-16T21:33:54.153Z,9.50
2022-08-16T21:36:35.955Z,8.30
2022-08-16T21:39:06.658Z,9.30
2022-08-16T21:41:38.659Z,8.70
2022-08-16T21:44:08.328Z,9.10
2022-08-16T21:46:37.209Z,9.20
2022-08-16T21:49:06.511Z,9.80
2022-08-16T21:51:36.570Z,8.90
2022-08-16T21:54:05.934Z,9.30
2022-08-16T21:56:35.132Z,10.90
2022-08-16T21:59:11.051Z,10.90
2022-08-16T22:01:43.065Z,9.50
2022-08-16T22:04:36.663Z,9.80
2022-08-16T22:07:04.181Z,9.90
2022-08-16T22:09:33.175Z,9.80
2022-08-16T22:12:02.146Z,9.20
2022-08-16T22:14:31.059Z,9.60
2022-08-16T22:16:59.850Z,9.40
2022-08-16T22:19:28.638Z,9.40
2022-08-16T22:21:57.426Z,9.70
2022-08-16T22:24:26.423Z,10.20
2022-08-16T22:26:55.312Z,9.00
2022-08-16T22:29:24.206Z,8.80
2022-08-16T22:31:52.992Z,9.50
2022-08-16T22:34:21.985Z,9.40
2022-08-16T22:36:51.598Z,9.80
2022-08-16T22:39:20.384Z,9.10
2022-08-16T22:41:50.299Z,9.00
2022-08-16T22:44:19.584Z,8.60
2022-08-16T22:46:48.390Z,9.10
2022-08-16T22:49:17.282Z,8.70
2022-08-16T22:51:46.173Z,7.80
2022-08-16T22:54:44.329Z,7.90
2022-08-16T22:57:05.709Z,8.10
2022-08-16T22:59:34.557Z,8.20
2022-08-16T23:02:06.569Z,7.30
2022-08-16T23:04:35.413Z,8.40
2022-08-16T23:07:06.253Z,7.90
2022-08-16T23:09:35.039Z,8.10
2022-08-16T23:12:07.696Z,8.10
2022-08-16T23:14:36.612Z,8.30
2022-08-16T23:17:05.603Z,7.90
2022-08-16T23:19:34.394Z,8.40
2022-08-16T23:22:04.207Z,8.10
2022-08-16T23:24:37.004Z,9.40
2022-08-16T23:27:15.813Z,7.80
2022-08-16T23:29:44.609Z,8.50
2022-08-16T23:32:14.211Z,8.00
2022-08-16T23:34:43.002Z,8.10
2022-08-16T23:37:12.199Z,8.40
2022-08-16T23:39:41.460Z,7.60
2022-08-16T23:42:52.176Z,8.30
2022-08-16T23:45:07.406Z,7.60
2022-08-16T23:47:36.234Z,7.60
2022-08-16T23:50:05.842Z,8.60
2022-08-16T23:52:53.850Z,7.90
2022-08-16T23:55:24.060Z,8.70
2022-08-16T23:57:53.150Z,8.30
